sensor_id;sensor_type;location;lat;lon;timestamp;P1;durP1;ratioP1;P2;durP2;ratioP2
45114;SDS011;30877;43.706;10.780;2023-10-31T00:01:31;9.15;;;1.77;;
45114;SDS011;30877;43.706;10.780;2023-10-31T00:03:59;8.77;;;1.75;;
45114;SDS011;30877;43.706;10.780;2023-10-31T00:06:28;8.43;;;2.17;;
45114;SDS011;30877;43.706;10.780;2023-10-31T00:08:56;7.30;;;1.42;;
45114;SDS011;30877;43.706;10.780;2023-10-31T00:11:24;9.43;;;1.58;;
45114;SDS011;30877;43.706;10.780;2023-10-31T00:13:52;12.68;;;2.30;;
45114;SDS011;30877;43.706;10.780;2023-10-31T00:16:21;7.78;;;1.90;;
45114;SDS011;30877;43.706;10.780;2023-10-31T00:18:51;9.48;;;2.10;;
45114;SDS011;30877;43.706;10.780;2023-10-31T00:21:19;7.63;;;1.45;;
45114;SDS011;30877;43.706;10.780;2023-10-31T00:23:47;7.32;;;1.65;;
45114;SDS011;30877;43.706;10.780;2023-10-31T00:26:16;9.57;;;1.67;;
45114;SDS011;30877;43.706;10.780;2023-10-31T00:28:50;7.88;;;1.60;;
45114;SDS011;30877;43.706;10.780;2023-10-31T00:31:19;7.93;;;1.55;;
45114;SDS011;30877;43.706;10.780;2023-10-31T00:33:47;9.07;;;1.75;;
45114;SDS011;30877;43.706;10.780;2023-10-31T00:36:17;10.73;;;2.08;;
45114;SDS011;30877;43.706;10.780;2023-10-31T00:38:45;7.38;;;1.80;;
45114;SDS011;30877;43.706;10.780;2023-10-31T00:41:13;6.38;;;1.35;;
45114;SDS011;30877;43.706;10.780;2023-10-31T00:43:41;9.32;;;2.15;;
45114;SDS011;30877;43.706;10.780;2023-10-31T00:46:10;6.10;;;1.50;;
45114;SDS011;30877;43.706;10.780;2023-10-31T00:48:38;8.82;;;1.73;;
45114;SDS011;30877;43.706;10.780;2023-10-31T00:51:06;6.95;;;1.58;;
45114;SDS011;30877;43.706;10.780;2023-10-31T00:53:36;8.82;;;2.20;;
45114;SDS011;30877;43.706;10.780;2023-10-31T00:56:04;10.68;;;2.08;;
45114;SDS011;30877;43.706;10.780;2023-10-31T00:58:33;8.90;;;1.90;;
45114;SDS011;30877;43.706;10.780;2023-10-31T01:01:01;10.85;;;2.10;;
45114;SDS011;30877;43.706;10.780;2023-10-31T01:03:30;7.63;;;1.80;;
45114;SDS011;30877;43.706;10.780;2023-10-31T01:05:58;10.20;;;2.50;;
45114;SDS011;30877;43.706;10.780;2023-10-31T01:08:26;11.90;;;1.70;;
45114;SDS011;30877;43.706;10.780;2023-10-31T01:10:56;14.00;;;2.22;;
45114;SDS011;30877;43.706;10.780;2023-10-31T01:13:24;11.95;;;2.13;;
45114;SDS011;30877;43.706;10.780;2023-10-31T01:15:53;10.02;;;2.00;;
45114;SDS011;30877;43.706;10.780;2023-10-31T01:18:22;7.45;;;1.90;;
45114;SDS011;30877;43.706;10.780;2023-10-31T01:20:50;9.90;;;2.47;;
45114;SDS011;30877;43.706;10.780;2023-10-31T01:23:18;10.10;;;1.92;;
45114;SDS011;30877;43.706;10.780;2023-10-31T01:25:46;11.20;;;2.47;;
45114;SDS011;30877;43.706;10.780;2023-10-31T01:28:16;8.65;;;2.20;;
45114;SDS011;30877;43.706;10.780;2023-10-31T01:30:45;17.88;;;3.08;;
45114;SDS011;30877;43.706;10.780;2023-10-31T01:33:13;14.82;;;2.13;;
45114;SDS011;30877;43.706;10.780;2023-10-31T01:35:41;10.15;;;1.88;;
45114;SDS011;30877;43.706;10.780;2023-10-31T01:38:09;9.77;;;2.20;;
45114;SDS011;30877;43.706;10.780;2023-10-31T01:40:38;7.80;;;1.75;;
45114;SDS011;30877;43.706;10.780;2023-10-31T01:43:06;13.35;;;1.98;;
45114;SDS011;30877;43.706;10.780;2023-10-31T01:45:36;9.23;;;1.70;;
45114;SDS011;30877;43.706;10.780;2023-10-31T01:48:04;13.60;;;2.60;;
45114;SDS011;30877;43.706;10.780;2023-10-31T01:50:32;6.13;;;1.63;;
45114;SDS011;30877;43.706;10.780;2023-10-31T01:53:01;14.30;;;2.38;;
45114;SDS011;30877;43.706;10.780;2023-10-31T01:55:30;8.27;;;1.30;;
45114;SDS011;30877;43.706;10.780;2023-10-31T01:57:58;11.13;;;2.58;;
45114;SDS011;30877;43.706;10.780;2023-10-31T02:00:44;10.15;;;2.08;;
45114;SDS011;30877;43.706;10.780;2023-10-31T02:03:13;14.23;;;2.75;;
45114;SDS011;30877;43.706;10.780;2023-10-31T02:05:42;8.95;;;2.17;;
45114;SDS011;30877;43.706;10.780;2023-10-31T02:08:10;9.05;;;1.98;;
45114;SDS011;30877;43.706;10.780;2023-10-31T02:10:38;13.85;;;2.13;;
45114;SDS011;30877;43.706;10.780;2023-10-31T02:13:10;9.38;;;2.08;;
45114;SDS011;30877;43.706;10.780;2023-10-31T02:15:39;10.25;;;2.15;;
45114;SDS011;30877;43.706;10.780;2023-10-31T02:18:08;11.05;;;2.15;;
45114;SDS011;30877;43.706;10.780;2023-10-31T02:20:37;12.40;;;1.65;;
45114;SDS011;30877;43.706;10.780;2023-10-31T02:23:07;6.70;;;1.45;;
45114;SDS011;30877;43.706;10.780;2023-10-31T02:25:35;9.13;;;1.20;;
45114;SDS011;30877;43.706;10.780;2023-10-31T02:28:04;6.20;;;1.42;;
45114;SDS011;30877;43.706;10.780;2023-10-31T02:30:33;7.35;;;1.48;;
45114;SDS011;30877;43.706;10.780;2023-10-31T02:33:02;7.25;;;1.73;;
45114;SDS011;30877;43.706;10.780;2023-10-31T02:35:31;10.30;;;1.48;;
45114;SDS011;30877;43.706;10.780;2023-10-31T02:37:59;7.72;;;1.45;;
45114;SDS011;30877;43.706;10.780;2023-10-31T02:40:29;9.73;;;1.90;;
45114;SDS011;30877;43.706;10.780;2023-10-31T02:42:57;7.13;;;1.30;;
45114;SDS011;30877;43.706;10.780;2023-10-31T02:45:26;5.60;;;1.30;;
45114;SDS011;30877;43.706;10.780;2023-10-31T02:47:54;10.02;;;1.88;;
45114;SDS011;30877;43.706;10.780;2023-10-31T02:50:23;5.80;;;1.23;;
45114;SDS011;30877;43.706;10.780;2023-10-31T02:52:51;5.90;;;0.80;;
45114;SDS011;30877;43.706;10.780;2023-10-31T02:55:19;5.15;;;1.02;;
45114;SDS011;30877;43.706;10.780;2023-10-31T02:57:49;7.18;;;0.88;;
45114;SDS011;30877;43.706;10.780;2023-10-31T03:00:18;6.47;;;1.20;;
45114;SDS011;30877;43.706;10.780;2023-10-31T03:02:46;5.45;;;1.25;;
45114;SDS011;30877;43.706;10.780;2023-10-31T03:05:15;6.28;;;0.95;;
45114;SDS011;30877;43.706;10.780;2023-10-31T03:07:43;9.27;;;1.38;;
45114;SDS011;30877;43.706;10.780;2023-10-31T03:10:12;8.48;;;1.00;;
45114;SDS011;30877;43.706;10.780;2023-10-31T03:12:40;4.72;;;0.85;;
45114;SDS011;30877;43.706;10.780;2023-10-31T03:15:10;4.95;;;1.42;;
45114;SDS011;30877;43.706;10.780;2023-10-31T03:17:39;13.80;;;1.80;;
45114;SDS011;30877;43.706;10.780;2023-10-31T03:20:07;10.43;;;1.20;;
45114;SDS011;30877;43.706;10.780;2023-10-31T03:22:36;4.88;;;1.20;;
45114;SDS011;30877;43.706;10.780;2023-10-31T03:25:05;7.47;;;1.08;;
45114;SDS011;30877;43.706;10.780;2023-10-31T03:27:34;6.68;;;1.73;;
45114;SDS011;30877;43.706;10.780;2023-10-31T03:30:03;8.77;;;1.50;;
45114;SDS011;30877;43.706;10.780;2023-10-31T03:32:34;6.65;;;1.35;;
45114;SDS011;30877;43.706;10.780;2023-10-31T03:35:02;7.07;;;1.73;;
45114;SDS011;30877;43.706;10.780;2023-10-31T03:37:31;12.10;;;2.00;;
45114;SDS011;30877;43.706;10.780;2023-10-31T03:39:59;7.28;;;1.38;;
45114;SDS011;30877;43.706;10.780;2023-10-31T03:42:27;8.60;;;1.73;;
45114;SDS011;30877;43.706;10.780;2023-10-31T03:44:55;5.85;;;1.17;;
45114;SDS011;30877;43.706;10.780;2023-10-31T03:47:24;6.75;;;1.60;;
45114;SDS011;30877;43.706;10.780;2023-10-31T03:49:54;4.85;;;1.10;;
45114;SDS011;30877;43.706;10.780;2023-10-31T03:52:22;7.55;;;1.08;;
45114;SDS011;30877;43.706;10.780;2023-10-31T03:54:50;8.07;;;1.30;;
45114;SDS011;30877;43.706;10.780;2023-10-31T03:57:18;6.55;;;0.90;;
45114;SDS011;30877;43.706;10.780;2023-10-31T03:59:47;5.50;;;0.85;;
45114;SDS011;30877;43.706;10.780;2023-10-31T04:02:15;6.93;;;1.00;;
45114;SDS011;30877;43.706;10.780;2023-10-31T04:04:42;6.60;;;1.20;;
45114;SDS011;30877;43.706;10.780;2023-10-31T04:07:12;6.43;;;0.90;;
45114;SDS011;30877;43.706;10.780;2023-10-31T04:09:40;6.65;;;1.35;;
45114;SDS011;30877;43.706;10.780;2023-10-31T04:12:08;10.27;;;1.45;;
45114;SDS011;30877;43.706;10.780;2023-10-31T04:14:37;9.05;;;1.38;;
45114;SDS011;30877;43.706;10.780;2023-10-31T04:17:15;10.55;;;1.05;;
45114;SDS011;30877;43.706;10.780;2023-10-31T04:19:43;5.63;;;1.00;;
45114;SDS011;30877;43.706;10.780;2023-10-31T04:22:12;10.32;;;1.25;;
45114;SDS011;30877;43.706;10.780;2023-10-31T04:24:41;8.55;;;1.17;;
45114;SDS011;30877;43.706;10.780;2023-10-31T04:27:08;8.63;;;1.58;;
45114;SDS011;30877;43.706;10.780;2023-10-31T04:29:36;7.70;;;1.92;;
45114;SDS011;30877;43.706;10.780;2023-10-31T04:32:04;8.60;;;1.08;;
45114;SDS011;30877;43.706;10.780;2023-10-31T04:34:32;6.40;;;1.15;;
45114;SDS011;30877;43.706;10.780;2023-10-31T04:37:00;6.53;;;1.40;;
45114;SDS011;30877;43.706;10.780;2023-10-31T04:39:30;5.65;;;1.10;;
45114;SDS011;30877;43.706;10.780;2023-10-31T04:41:58;7.63;;;0.98;;
45114;SDS011;30877;43.706;10.780;2023-10-31T04:44:26;8.73;;;1.20;;
45114;SDS011;30877;43.706;10.780;2023-10-31T04:46:54;10.55;;;1.50;;
45114;SDS011;30877;43.706;10.780;2023-10-31T04:49:22;5.25;;;1.40;;
45114;SDS011;30877;43.706;10.780;2023-10-31T04:51:50;8.43;;;1.90;;
45114;SDS011;30877;43.706;10.780;2023-10-31T04:54:18;8.98;;;1.70;;
45114;SDS011;30877;43.706;10.780;2023-10-31T04:56:48;9.25;;;2.38;;
45114;SDS011;30877;43.706;10.780;2023-10-31T04:59:16;8.85;;;1.40;;
45114;SDS011;30877;43.706;10.780;2023-10-31T05:01:48;13.45;;;1.90;;
45114;SDS011;30877;43.706;10.780;2023-10-31T05:04:17;12.18;;;2.22;;
45114;SDS011;30877;43.706;10.780;2023-10-31T05:06:45;8.70;;;1.88;;
45114;SDS011;30877;43.706;10.780;2023-10-31T05:09:13;7.20;;;1.50;;
45114;SDS011;30877;43.706;10.780;2023-10-31T05:11:42;6.55;;;1.13;;
45114;SDS011;30877;43.706;10.780;2023-10-31T05:14:12;11.70;;;2.42;;
45114;SDS011;30877;43.706;10.780;2023-10-31T05:16:41;5.65;;;1.00;;
45114;SDS011;30877;43.706;10.780;2023-10-31T05:19:09;8.73;;;1.60;;
45114;SDS011;30877;43.706;10.780;2023-10-31T05:21:37;5.72;;;1.30;;
45114;SDS011;30877;43.706;10.780;2023-10-31T05:24:05;6.40;;;1.15;;
45114;SDS011;30877;43.706;10.780;2023-10-31T05:26:34;10.13;;;2.30;;
45114;SDS011;30877;43.706;10.780;2023-10-31T05:29:01;6.75;;;1.13;;
45114;SDS011;30877;43.706;10.780;2023-10-31T05:31:31;12.75;;;1.67;;
45114;SDS011;30877;43.706;10.780;2023-10-31T05:33:58;6.40;;;1.55;;
45114;SDS011;30877;43.706;10.780;2023-10-31T05:36:26;9.07;;;1.10;;
45114;SDS011;30877;43.706;10.780;2023-10-31T05:38:54;12.68;;;1.67;;
45114;SDS011;30877;43.706;10.780;2023-10-31T05:41:22;5.63;;;1.48;;
45114;SDS011;30877;43.706;10.780;2023-10-31T05:43:50;8.57;;;1.48;;
45114;SDS011;30877;43.706;10.780;2023-10-31T05:46:19;8.60;;;1.63;;
45114;SDS011;30877;43.706;10.780;2023-10-31T05:48:48;7.85;;;1.50;;
45114;SDS011;30877;43.706;10.780;2023-10-31T05:51:18;10.23;;;1.83;;
45114;SDS011;30877;43.706;10.780;2023-10-31T05:53:52;6.45;;;1.42;;
45114;SDS011;30877;43.706;10.780;2023-10-31T05:56:20;8.05;;;1.45;;
45114;SDS011;30877;43.706;10.780;2023-10-31T05:58:48;5.45;;;1.25;;
45114;SDS011;30877;43.706;10.780;2023-10-31T06:01:16;11.70;;;2.17;;
45114;SDS011;30877;43.706;10.780;2023-10-31T06:03:44;7.22;;;1.48;;
45114;SDS011;30877;43.706;10.780;2023-10-31T06:06:13;5.50;;;1.00;;
45114;SDS011;30877;43.706;10.780;2023-10-31T06:08:41;12.80;;;2.42;;
45114;SDS011;30877;43.706;10.780;2023-10-31T06:11:09;6.57;;;2.10;;
45114;SDS011;30877;43.706;10.780;2023-10-31T06:13:40;6.25;;;1.33;;
45114;SDS011;30877;43.706;10.780;2023-10-31T06:16:07;9.30;;;1.30;;
45114;SDS011;30877;43.706;10.780;2023-10-31T06:18:37;9.88;;;1.30;;
45114;SDS011;30877;43.706;10.780;2023-10-31T06:21:06;7.93;;;1.42;;
45114;SDS011;30877;43.706;10.780;2023-10-31T06:23:38;11.52;;;1.70;;
45114;SDS011;30877;43.706;10.780;2023-10-31T06:26:06;9.27;;;1.90;;
45114;SDS011;30877;43.706;10.780;2023-10-31T06:28:35;10.75;;;1.88;;
45114;SDS011;30877;43.706;10.780;2023-10-31T06:31:11;6.35;;;1.75;;
45114;SDS011;30877;43.706;10.780;2023-10-31T06:33:40;13.43;;;1.90;;
45114;SDS011;30877;43.706;10.780;2023-10-31T06:36:08;13.35;;;3.13;;
45114;SDS011;30877;43.706;10.780;2023-10-31T06:38:36;6.95;;;1.58;;
45114;SDS011;30877;43.706;10.780;2023-10-31T06:41:05;8.00;;;1.77;;
45114;SDS011;30877;43.706;10.780;2023-10-31T06:43:33;10.80;;;1.95;;
45114;SDS011;30877;43.706;10.780;2023-10-31T06:46:01;8.25;;;1.52;;
45114;SDS011;30877;43.706;10.780;2023-10-31T06:48:32;11.35;;;1.48;;
45114;SDS011;30877;43.706;10.780;2023-10-31T06:50:59;5.90;;;1.38;;
45114;SDS011;30877;43.706;10.780;2023-10-31T06:53:27;8.75;;;1.85;;
45114;SDS011;30877;43.706;10.780;2023-10-31T06:55:55;7.97;;;2.22;;
45114;SDS011;30877;43.706;10.780;2023-10-31T06:58:24;8.27;;;1.48;;
45114;SDS011;30877;43.706;10.780;2023-10-31T07:00:54;9.55;;;1.70;;
45114;SDS011;30877;43.706;10.780;2023-10-31T07:03:25;8.52;;;1.60;;
45114;SDS011;30877;43.706;10.780;2023-10-31T07:05:53;12.85;;;1.58;;
45114;SDS011;30877;43.706;10.780;2023-10-31T07:08:23;9.95;;;1.52;;
45114;SDS011;30877;43.706;10.780;2023-10-31T07:11:15;8.68;;;1.20;;
45114;SDS011;30877;43.706;10.780;2023-10-31T07:13:44;10.88;;;1.73;;
45114;SDS011;30877;43.706;10.780;2023-10-31T07:16:12;11.50;;;1.85;;
45114;SDS011;30877;43.706;10.780;2023-10-31T07:18:40;8.70;;;1.52;;
45114;SDS011;30877;43.706;10.780;2023-10-31T07:21:08;9.60;;;1.50;;
45114;SDS011;30877;43.706;10.780;2023-10-31T07:23:35;6.40;;;1.50;;
45114;SDS011;30877;43.706;10.780;2023-10-31T07:26:04;10.63;;;2.03;;
45114;SDS011;30877;43.706;10.780;2023-10-31T07:28:32;10.55;;;2.42;;
45114;SDS011;30877;43.706;10.780;2023-10-31T07:31:02;13.20;;;2.42;;
45114;SDS011;30877;43.706;10.780;2023-10-31T07:33:33;12.20;;;2.40;;
45114;SDS011;30877;43.706;10.780;2023-10-31T07:36:00;18.58;;;2.60;;
45114;SDS011;30877;43.706;10.780;2023-10-31T07:38:28;12.88;;;1.92;;
45114;SDS011;30877;43.706;10.780;2023-10-31T07:40:56;9.73;;;2.50;;
45114;SDS011;30877;43.706;10.780;2023-10-31T07:43:24;14.18;;;3.13;;
45114;SDS011;30877;43.706;10.780;2023-10-31T07:45:52;20.08;;;3.42;;
45114;SDS011;30877;43.706;10.780;2023-10-31T07:48:21;13.32;;;3.10;;
45114;SDS011;30877;43.706;10.780;2023-10-31T07:50:49;14.60;;;2.97;;
45114;SDS011;30877;43.706;10.780;2023-10-31T07:53:17;15.88;;;3.17;;
45114;SDS011;30877;43.706;10.780;2023-10-31T07:55:45;15.55;;;3.10;;
45114;SDS011;30877;43.706;10.780;2023-10-31T07:58:13;12.68;;;2.47;;
45114;SDS011;30877;43.706;10.780;2023-10-31T08:00:41;15.75;;;3.10;;
45114;SDS011;30877;43.706;10.780;2023-10-31T08:03:09;17.13;;;3.28;;
45114;SDS011;30877;43.706;10.780;2023-10-31T08:05:40;16.38;;;3.05;;
45114;SDS011;30877;43.706;10.780;2023-10-31T08:08:08;14.48;;;3.33;;
45114;SDS011;30877;43.706;10.780;2023-10-31T08:10:36;15.55;;;4.05;;
45114;SDS011;30877;43.706;10.780;2023-10-31T08:13:05;11.95;;;2.67;;
45114;SDS011;30877;43.706;10.780;2023-10-31T08:15:33;16.73;;;3.78;;
45114;SDS011;30877;43.706;10.780;2023-10-31T08:18:02;14.52;;;3.10;;
45114;SDS011;30877;43.706;10.780;2023-10-31T08:20:30;17.33;;;2.72;;
45114;SDS011;30877;43.706;10.780;2023-10-31T08:23:02;15.32;;;2.97;;
45114;SDS011;30877;43.706;10.780;2023-10-31T08:25:31;12.55;;;2.40;;
45114;SDS011;30877;43.706;10.780;2023-10-31T08:27:59;18.15;;;3.50;;
45114;SDS011;30877;43.706;10.780;2023-10-31T08:30:27;13.70;;;2.72;;
45114;SDS011;30877;43.706;10.780;2023-10-31T08:32:56;15.00;;;2.83;;
45114;SDS011;30877;43.706;10.780;2023-10-31T08:35:24;18.15;;;3.13;;
45114;SDS011;30877;43.706;10.780;2023-10-31T08:37:53;12.73;;;2.53;;
45114;SDS011;30877;43.706;10.780;2023-10-31T08:40:23;12.45;;;2.75;;
45114;SDS011;30877;43.706;10.780;2023-10-31T08:42:51;11.85;;;2.45;;
45114;SDS011;30877;43.706;10.780;2023-10-31T08:45:20;16.50;;;3.08;;
45114;SDS011;30877;43.706;10.780;2023-10-31T08:47:51;13.65;;;2.22;;
45114;SDS011;30877;43.706;10.780;2023-10-31T08:50:19;18.20;;;3.25;;
45114;SDS011;30877;43.706;10.780;2023-10-31T08:52:48;11.35;;;3.10;;
45114;SDS011;30877;43.706;10.780;2023-10-31T08:55:16;17.08;;;2.92;;
45114;SDS011;30877;43.706;10.780;2023-10-31T08:57:46;15.13;;;3.45;;
45114;SDS011;30877;43.706;10.780;2023-10-31T09:00:15;11.02;;;2.25;;
45114;SDS011;30877;43.706;10.780;2023-10-31T09:02:44;10.32;;;2.47;;
45114;SDS011;30877;43.706;10.780;2023-10-31T09:05:12;15.50;;;2.92;;
45114;SDS011;30877;43.706;10.780;2023-10-31T09:07:41;14.80;;;2.63;;
45114;SDS011;30877;43.706;10.780;2023-10-31T09:10:10;14.30;;;3.10;;
45114;SDS011;30877;43.706;10.780;2023-10-31T09:12:38;13.43;;;3.13;;
45114;SDS011;30877;43.706;10.780;2023-10-31T09:15:09;13.93;;;3.20;;
45114;SDS011;30877;43.706;10.780;2023-10-31T09:17:37;17.70;;;2.78;;
45114;SDS011;30877;43.706;10.780;2023-10-31T09:20:06;17.90;;;3.05;;
45114;SDS011;30877;43.706;10.780;2023-10-31T09:22:36;13.88;;;2.60;;
45114;SDS011;30877;43.706;10.780;2023-10-31T09:25:04;10.95;;;3.00;;
45114;SDS011;30877;43.706;10.780;2023-10-31T09:27:33;12.82;;;2.65;;
45114;SDS011;30877;43.706;10.780;2023-10-31T09:30:01;14.93;;;2.63;;
45114;SDS011;30877;43.706;10.780;2023-10-31T09:32:32;14.30;;;3.15;;
45114;SDS011;30877;43.706;10.780;2023-10-31T09:35:01;14.88;;;2.70;;
45114;SDS011;30877;43.706;10.780;2023-10-31T09:37:30;15.95;;;3.72;;
45114;SDS011;30877;43.706;10.780;2023-10-31T09:39:58;17.05;;;2.92;;
45114;SDS011;30877;43.706;10.780;2023-10-31T09:42:26;15.02;;;2.67;;
45114;SDS011;30877;43.706;10.780;2023-10-31T09:44:55;14.52;;;2.78;;
45114;SDS011;30877;43.706;10.780;2023-10-31T09:47:24;11.70;;;2.55;;
45114;SDS011;30877;43.706;10.780;2023-10-31T09:49:54;14.35;;;2.53;;
45114;SDS011;30877;43.706;10.780;2023-10-31T09:52:23;11.57;;;2.22;;
45114;SDS011;30877;43.706;10.780;2023-10-31T09:54:55;16.70;;;3.75;;
45114;SDS011;30877;43.706;10.780;2023-10-31T09:57:25;15.23;;;2.72;;
45114;SDS011;30877;43.706;10.780;2023-10-31T09:59:53;9.88;;;2.45;;
45114;SDS011;30877;43.706;10.780;2023-10-31T10:02:22;11.27;;;2.47;;
45114;SDS011;30877;43.706;10.780;2023-10-31T10:04:51;15.45;;;2.90;;
45114;SDS011;30877;43.706;10.780;2023-10-31T10:07:21;10.90;;;2.00;;
45114;SDS011;30877;43.706;10.780;2023-10-31T10:09:49;11.63;;;2.20;;
45114;SDS011;30877;43.706;10.780;2023-10-31T10:12:18;9.93;;;2.30;;
45114;SDS011;30877;43.706;10.780;2023-10-31T10:14:47;12.93;;;2.05;;
45114;SDS011;30877;43.706;10.780;2023-10-31T10:17:16;10.15;;;2.00;;
45114;SDS011;30877;43.706;10.780;2023-10-31T10:19:45;11.63;;;2.00;;
45114;SDS011;30877;43.706;10.780;2023-10-31T10:22:14;11.00;;;2.20;;
45114;SDS011;30877;43.706;10.780;2023-10-31T10:24:44;8.85;;;2.15;;
45114;SDS011;30877;43.706;10.780;2023-10-31T10:27:12;10.40;;;2.22;;
45114;SDS011;30877;43.706;10.780;2023-10-31T10:29:41;8.60;;;1.77;;
45114;SDS011;30877;43.706;10.780;2023-10-31T10:32:11;7.93;;;1.75;;
45114;SDS011;30877;43.706;10.780;2023-10-31T10:34:42;14.10;;;2.75;;
45114;SDS011;30877;43.706;10.780;2023-10-31T10:37:10;10.13;;;1.75;;
45114;SDS011;30877;43.706;10.780;2023-10-31T10:39:40;10.13;;;1.90;;
45114;SDS011;30877;43.706;10.780;2023-10-31T10:42:11;9.45;;;1.60;;
45114;SDS011;30877;43.706;10.780;2023-10-31T10:44:43;13.05;;;2.28;;
45114;SDS011;30877;43.706;10.780;2023-10-31T10:47:16;12.00;;;1.85;;
45114;SDS011;30877;43.706;10.780;2023-10-31T10:49:46;6.60;;;1.65;;
45114;SDS011;30877;43.706;10.780;2023-10-31T10:52:22;10.43;;;1.90;;
45114;SDS011;30877;43.706;10.780;2023-10-31T10:54:57;12.32;;;2.08;;
45114;SDS011;30877;43.706;10.780;2023-10-31T10:57:41;10.27;;;1.67;;
45114;SDS011;30877;43.706;10.780;2023-10-31T11:00:15;11.40;;;2.28;;
45114;SDS011;30877;43.706;10.780;2023-10-31T11:02:44;9.25;;;1.92;;
45114;SDS011;30877;43.706;10.780;2023-10-31T11:05:14;9.32;;;1.52;;
45114;SDS011;30877;43.706;10.780;2023-10-31T11:07:43;9.00;;;1.65;;
45114;SDS011;30877;43.706;10.780;2023-10-31T11:10:13;9.15;;;1.65;;
45114;SDS011;30877;43.706;10.780;2023-10-31T11:12:44;11.20;;;2.40;;
45114;SDS011;30877;43.706;10.780;2023-10-31T11:15:13;11.05;;;1.77;;
45114;SDS011;30877;43.706;10.780;2023-10-31T11:17:44;10.88;;;2.03;;
45114;SDS011;30877;43.706;10.780;2023-10-31T11:20:15;11.85;;;2.15;;
45114;SDS011;30877;43.706;10.780;2023-10-31T11:22:44;14.40;;;1.88;;
45114;SDS011;30877;43.706;10.780;2023-10-31T11:25:14;14.05;;;1.85;;
45114;SDS011;30877;43.706;10.780;2023-10-31T11:28:10;9.52;;;2.00;;
45114;SDS011;30877;43.706;10.780;2023-10-31T11:30:40;10.80;;;1.88;;
45114;SDS011;30877;43.706;10.780;2023-10-31T11:33:12;10.88;;;2.40;;
45114;SDS011;30877;43.706;10.780;2023-10-31T11:35:42;8.57;;;1.65;;
45114;SDS011;30877;43.706;10.780;2023-10-31T11:38:13;9.88;;;1.50;;
45114;SDS011;30877;43.706;10.780;2023-10-31T11:40:58;8.60;;;1.52;;
45114;SDS011;30877;43.706;10.780;2023-10-31T11:43:51;13.65;;;2.10;;
45114;SDS011;30877;43.706;10.780;2023-10-31T11:46:20;10.57;;;1.83;;
45114;SDS011;30877;43.706;10.780;2023-10-31T11:48:53;12.27;;;2.17;;
45114;SDS011;30877;43.706;10.780;2023-10-31T11:51:25;10.40;;;1.50;;
45114;SDS011;30877;43.706;10.780;2023-10-31T11:53:54;9.90;;;1.88;;
45114;SDS011;30877;43.706;10.780;2023-10-31T11:56:23;11.90;;;2.42;;
45114;SDS011;30877;43.706;10.780;2023-10-31T11:58:58;8.90;;;2.13;;
45114;SDS011;30877;43.706;10.780;2023-10-31T12:01:28;5.40;;;1.35;;
45114;SDS011;30877;43.706;10.780;2023-10-31T12:03:56;10.18;;;2.35;;
45114;SDS011;30877;43.706;10.780;2023-10-31T12:06:25;9.15;;;1.40;;
45114;SDS011;30877;43.706;10.780;2023-10-31T12:08:53;9.77;;;1.90;;
45114;SDS011;30877;43.706;10.780;2023-10-31T12:11:28;8.30;;;1.92;;
45114;SDS011;30877;43.706;10.780;2023-10-31T12:14:20;14.35;;;2.65;;
45114;SDS011;30877;43.706;10.780;2023-10-31T12:16:48;11.98;;;2.10;;
45114;SDS011;30877;43.706;10.780;2023-10-31T12:19:32;10.00;;;1.80;;
45114;SDS011;30877;43.706;10.780;2023-10-31T12:22:00;8.95;;;2.15;;
45114;SDS011;30877;43.706;10.780;2023-10-31T12:24:30;8.93;;;1.80;;
45114;SDS011;30877;43.706;10.780;2023-10-31T12:27:00;6.45;;;1.30;;
45114;SDS011;30877;43.706;10.780;2023-10-31T12:29:30;8.82;;;1.85;;
45114;SDS011;30877;43.706;10.780;2023-10-31T12:31:58;7.10;;;1.48;;
45114;SDS011;30877;43.706;10.780;2023-10-31T12:34:26;11.32;;;1.85;;
45114;SDS011;30877;43.706;10.780;2023-10-31T12:36:54;10.43;;;2.05;;
45114;SDS011;30877;43.706;10.780;2023-10-31T12:39:25;9.88;;;1.40;;
45114;SDS011;30877;43.706;10.780;2023-10-31T12:41:54;7.88;;;1.40;;
45114;SDS011;30877;43.706;10.780;2023-10-31T12:44:25;7.32;;;1.60;;
45114;SDS011;30877;43.706;10.780;2023-10-31T12:46:57;8.90;;;1.33;;
45114;SDS011;30877;43.706;10.780;2023-10-31T12:49:26;6.68;;;1.30;;
45114;SDS011;30877;43.706;10.780;2023-10-31T12:51:55;6.28;;;1.35;;
45114;SDS011;30877;43.706;10.780;2023-10-31T12:54:28;9.43;;;1.52;;
45114;SDS011;30877;43.706;10.780;2023-10-31T12:57:00;8.35;;;2.25;;
45114;SDS011;30877;43.706;10.780;2023-10-31T12:59:31;11.85;;;2.05;;
45114;SDS011;30877;43.706;10.780;2023-10-31T13:02:01;9.32;;;1.85;;
45114;SDS011;30877;43.706;10.780;2023-10-31T13:04:31;7.72;;;1.90;;
45114;SDS011;30877;43.706;10.780;2023-10-31T13:07:00;12.32;;;2.10;;
45114;SDS011;30877;43.706;10.780;2023-10-31T13:09:30;9.80;;;2.25;;
45114;SDS011;30877;43.706;10.780;2023-10-31T13:12:00;10.43;;;1.88;;
45114;SDS011;30877;43.706;10.780;2023-10-31T13:14:29;8.60;;;2.00;;
45114;SDS011;30877;43.706;10.780;2023-10-31T13:16:57;10.00;;;2.08;;
45114;SDS011;30877;43.706;10.780;2023-10-31T13:19:28;8.90;;;1.70;;
45114;SDS011;30877;43.706;10.780;2023-10-31T13:21:55;5.82;;;1.38;;
45114;SDS011;30877;43.706;10.780;2023-10-31T13:24:24;9.52;;;2.10;;
45114;SDS011;30877;43.706;10.780;2023-10-31T13:26:52;10.00;;;1.83;;
45114;SDS011;30877;43.706;10.780;2023-10-31T13:29:21;9.43;;;2.10;;
45114;SDS011;30877;43.706;10.780;2023-10-31T13:32:10;10.85;;;2.22;;
45114;SDS011;30877;43.706;10.780;2023-10-31T13:34:40;12.30;;;2.75;;
45114;SDS011;30877;43.706;10.780;2023-10-31T13:37:08;13.80;;;2.05;;
45114;SDS011;30877;43.706;10.780;2023-10-31T13:39:36;13.82;;;2.30;;
45114;SDS011;30877;43.706;10.780;2023-10-31T13:42:05;10.82;;;2.10;;
45114;SDS011;30877;43.706;10.780;2023-10-31T13:44:33;11.73;;;2.25;;
45114;SDS011;30877;43.706;10.780;2023-10-31T13:47:01;11.82;;;2.47;;
45114;SDS011;30877;43.706;10.780;2023-10-31T13:49:30;8.13;;;1.67;;
45114;SDS011;30877;43.706;10.780;2023-10-31T13:51:59;15.60;;;2.53;;
45114;SDS011;30877;43.706;10.780;2023-10-31T13:54:27;11.77;;;1.73;;
45114;SDS011;30877;43.706;10.780;2023-10-31T13:56:55;11.05;;;1.92;;
45114;SDS011;30877;43.706;10.780;2023-10-31T13:59:23;7.50;;;1.60;;
45114;SDS011;30877;43.706;10.780;2023-10-31T14:01:52;10.73;;;2.00;;
45114;SDS011;30877;43.706;10.780;2023-10-31T14:04:20;10.75;;;2.08;;
45114;SDS011;30877;43.706;10.780;2023-10-31T14:06:48;7.40;;;1.52;;
45114;SDS011;30877;43.706;10.780;2023-10-31T14:09:18;11.75;;;2.15;;
45114;SDS011;30877;43.706;10.780;2023-10-31T14:11:46;10.35;;;1.88;;
45114;SDS011;30877;43.706;10.780;2023-10-31T14:14:15;9.18;;;2.58;;
45114;SDS011;30877;43.706;10.780;2023-10-31T14:16:48;10.52;;;1.73;;
45114;SDS011;30877;43.706;10.780;2023-10-31T14:19:16;13.68;;;2.70;;
45114;SDS011;30877;43.706;10.780;2023-10-31T14:21:45;9.95;;;2.13;;
45114;SDS011;30877;43.706;10.780;2023-10-31T14:24:13;11.15;;;2.78;;
45114;SDS011;30877;43.706;10.780;2023-10-31T14:26:42;11.00;;;2.00;;
45114;SDS011;30877;43.706;10.780;2023-10-31T14:29:29;7.72;;;2.47;;
45114;SDS011;30877;43.706;10.780;2023-10-31T14:31:59;9.27;;;2.15;;
45114;SDS011;30877;43.706;10.780;2023-10-31T14:34:33;12.50;;;2.05;;
45114;SDS011;30877;43.706;10.780;2023-10-31T14:37:01;11.18;;;2.08;;
45114;SDS011;30877;43.706;10.780;2023-10-31T14:39:29;15.82;;;2.42;;
45114;SDS011;30877;43.706;10.780;2023-10-31T14:41:59;7.80;;;1.73;;